Time,TemperatureF,DewpointF,PressureIn,WindDirection,WindDirectionDegrees,WindSpeedMPH,WindSpeedGustMPH,Humidity,HourlyPrecipIn,Conditions,Clouds,dailyrainin,SoftwareType,DateUTC
2013-02-05 00:00:00,35.9,24.5,29.88,SSW,205,0.0,14.0,63,0.00,,,0.00,Wunderground v.1.15,2013-02-05 05:00:00,
2013-02-05 00:05:00,35.9,24.9,29.88,SSW,205,1.0,14.0,64,0.00,,,0.00,Wunderground v.1.15,2013-02-05 05:05:00,
2013-02-05 00:10:00,35.9,24.9,29.89,SSW,205,0.0,14.0,64,0.00,,,0.00,Wunderground v.1.15,2013-02-05 05:10:00,
2013-02-05 00:15:00,35.9,24.5,29.89,SSW,205,0.0,14.0,63,0.00,,,0.00,Wunderground v.1.15,2013-02-05 05:15:00,
2013-02-05 00:20:00,35.9,24.9,29.89,SSW,205,0.0,14.0,64,0.00,,,0.00,Wunderground v.1.15,2013-02-05 05:20:00,
2013-02-05 00:25:00,35.9,24.9,29.88,SSW,205,0.0,14.0,64,0.00,,,0.00,Wunderground v.1.15,2013-02-05 05:25:00,
2013-02-05 00:35:00,35.9,24.5,29.88,SSW,205,1.0,14.0,63,0.00,,,0.00,Wunderground v.1.15,2013-02-05 05:35:00,
2013-02-05 00:40:00,35.9,24.9,29.88,SSW,205,1.0,1.0,64,0.00,,,0.00,Wunderground v.1.15,2013-02-05 05:40:00,
2013-02-05 00:45:00,35.9,24.9,29.88,SSW,205,1.0,3.0,64,0.00,,,0.00,Wunderground v.1.15,2013-02-05 05:45:00,
2013-02-05 00:50:00,36.0,24.6,29.88,SW,218,1.0,1.0,63,0.00,,,0.00,Wunderground v.1.15,2013-02-05 05:50:00,
2013-02-05 01:00:00,36.0,24.6,29.88,SW,218,1.0,14.0,63,0.00,,,0.00,Wunderground v.1.15,2013-02-05 06:00:00,
2013-02-05 01:05:00,35.9,24.5,29.87,SW,218,1.0,14.0,63,0.00,,,0.00,Wunderground v.1.15,2013-02-05 06:05:00,
2013-02-05 01:10:00,35.8,24.4,29.87,SW,218,0.0,14.0,63,0.00,,,0.00,Wunderground v.1.15,2013-02-05 06:10:00,
2013-02-05 01:15:00,35.7,24.3,29.87,SW,218,0.0,14.0,63,0.00,,,0.00,Wunderground v.1.15,2013-02-05 06:15:00,
2013-02-05 01:25:00,35.6,25.0,29.87,SW,218,0.0,14.0,65,0.00,,,0.00,Wunderground v.1.15,2013-02-05 06:25:00,
2013-02-05 01:30:00,35.5,24.5,29.87,SW,218,0.0,14.0,64,0.00,,,0.00,Wunderground v.1.15,2013-02-05 06:30:00,
2013-02-05 01:35:00,35.4,24.8,29.87,SW,218,0.0,14.0,65,0.00,,,0.00,Wunderground v.1.15,2013-02-05 06:35:00,
2013-02-05 01:40:00,35.3,25.1,29.87,SW,218,0.0,14.0,66,0.00,,,0.00,Wunderground v.1.15,2013-02-05 06:40:00,
2013-02-05 01:50:00,35.0,24.8,29.87,SW,218,0.0,14.0,66,0.00,,,0.00,Wunderground v.1.15,2013-02-05 06:50:00,
2013-02-05 01:55:00,35.0,25.1,29.87,SW,218,0.0,14.0,67,0.00,,,0.00,Wunderground v.1.15,2013-02-05 06:55:00,
2013-02-05 02:00:00,35.1,25.2,29.87,SW,218,0.0,14.0,67,0.00,,,0.00,Wunderground v.1.15,2013-02-05 07:00:00,
2013-02-05 02:05:00,35.1,26.3,29.87,SW,218,0.0,14.0,70,0.00,,,0.00,Wunderground v.1.15,2013-02-05 07:05:00,
2013-02-05 02:15:00,35.2,25.7,29.87,SW,218,0.0,14.0,68,0.00,,,0.00,Wunderground v.1.15,2013-02-05 07:15:00,
2013-02-05 02:20:00,35.1,26.6,29.87,SW,218,0.0,14.0,71,0.00,,,0.00,Wunderground v.1.15,2013-02-05 07:20:00,
2013-02-05 02:25:00,35.1,25.6,29.87,SW,218,0.0,14.0,68,0.00,,,0.00,Wunderground v.1.15,2013-02-05 07:25:00,
2013-02-05 02:30:00,35.0,25.5,29.86,SW,218,0.0,14.0,68,0.00,,,0.00,Wunderground v.1.15,2013-02-05 07:30:00,
2013-02-05 02:40:00,34.4,25.6,29.86,SW,218,0.0,14.0,70,0.00,,,0.00,Wunderground v.1.15,2013-02-05 07:40:00,
2013-02-05 02:45:00,34.4,25.3,29.86,SW,218,0.0,14.0,69,0.00,,,0.00,Wunderground v.1.15,2013-02-05 07:45:00,
2013-02-05 02:50:00,34.4,25.3,29.86,SW,218,0.0,14.0,69,0.00,,,0.00,Wunderground v.1.15,2013-02-05 07:50:00,
2013-02-05 02:55:00,34.4,25.3,29.86,SW,218,0.0,14.0,69,0.00,,,0.00,Wunderground v.1.15,2013-02-05 07:55:00,
2013-02-05 03:00:00,34.4,26.0,29.86,SW,218,0.0,14.0,71,0.00,,,0.00,Wunderground v.1.15,2013-02-05 08:00:00,
2013-02-05 03:10:00,34.4,25.6,29.86,SW,218,0.0,14.0,70,0.00,,,0.00,Wunderground v.1.15,2013-02-05 08:10:00,
2013-02-05 03:15:00,34.3,25.9,29.86,SW,218,0.0,14.0,71,0.00,,,0.00,Wunderground v.1.15,2013-02-05 08:15:00,
2013-02-05 03:20:00,34.1,25.7,29.86,SW,218,0.0,14.0,71,0.00,,,0.00,Wunderground v.1.15,2013-02-05 08:20:00,
2013-02-05 03:25:00,33.9,25.1,29.86,SW,218,0.0,14.0,70,0.00,,,0.00,Wunderground v.1.15,2013-02-05 08:25:00,
2013-02-05 03:30:00,33.8,25.7,29.86,SW,218,0.0,14.0,72,0.00,,,0.00,Wunderground v.1.15,2013-02-05 08:30:00,
2013-02-05 03:40:00,34.2,27.1,29.86,SW,218,0.0,14.0,75,0.00,,,0.00,Wunderground v.1.15,2013-02-05 08:40:00,
2013-02-05 03:45:00,34.4,26.3,29.86,SW,218,0.0,14.0,72,0.00,,,0.00,Wunderground v.1.15,2013-02-05 08:45:00,
2013-02-05 03:50:00,34.0,25.6,29.86,SW,218,0.0,14.0,71,0.00,,,0.00,Wunderground v.1.15,2013-02-05 08:50:00,
2013-02-05 03:55:00,33.8,26.1,29.85,SW,218,0.0,14.0,73,0.00,,,0.00,Wunderground v.1.15,2013-02-05 08:55:00,
2013-02-05 04:05:00,33.7,26.0,29.85,SW,218,0.0,14.0,73,0.00,,,0.00,Wunderground v.1.15,2013-02-05 09:05:00,
2013-02-05 04:10:00,33.4,26.3,29.85,SW,218,0.0,14.0,75,0.00,,,0.00,Wunderground v.1.15,2013-02-05 09:10:00,
2013-02-05 04:15:00,33.3,25.9,29.86,SW,218,0.0,14.0,74,0.00,,,0.00,Wunderground v.1.15,2013-02-05 09:15:00,
2013-02-05 04:20:00,33.1,25.7,29.85,SW,218,0.0,14.0,74,0.00,,,0.00,Wunderground v.1.15,2013-02-05 09:20:00,
2013-02-05 04:25:00,33.2,25.8,29.85,SW,218,0.0,14.0,74,0.00,,,0.00,Wunderground v.1.15,2013-02-05 09:25:00,
2013-02-05 04:35:00,33.2,25.5,29.85,SW,218,0.0,14.0,73,0.00,,,0.00,Wunderground v.1.15,2013-02-05 09:35:00,
2013-02-05 04:40:00,33.3,26.2,29.84,SW,218,0.0,14.0,75,0.00,,,0.00,Wunderground v.1.15,2013-02-05 09:40:00,
2013-02-05 04:45:00,33.3,25.6,29.85,SW,218,0.0,14.0,73,0.00,,,0.00,Wunderground v.1.15,2013-02-05 09:45:00,
2013-02-05 04:50:00,33.1,25.7,29.85,SW,218,0.0,14.0,74,0.00,,,0.00,Wunderground v.1.15,2013-02-05 09:50:00,
2013-02-05 05:00:00,33.2,25.8,29.85,SW,218,0.0,14.0,74,0.00,,,0.00,Wunderground v.1.15,2013-02-05 10:00:00,
2013-02-05 05:05:00,33.4,26.3,29.85,SW,218,0.0,14.0,75,0.00,,,0.00,Wunderground v.1.15,2013-02-05 10:05:00,
2013-02-05 05:10:00,33.6,26.2,29.86,SW,218,0.0,14.0,74,0.00,,,0.00,Wunderground v.1.15,2013-02-05 10:10:00,
2013-02-05 05:15:00,33.8,27.0,29.86,SW,218,0.0,14.0,76,0.00,,,0.00,Wunderground v.1.15,2013-02-05 10:15:00,
2013-02-05 05:20:00,34.1,27.0,29.85,SW,218,0.0,14.0,75,0.00,,,0.00,Wunderground v.1.15,2013-02-05 10:20:00,
2013-02-05 05:30:00,34.2,26.4,29.85,SW,218,0.0,14.0,73,0.00,,,0.00,Wunderground v.1.15,2013-02-05 10:30:00,
2013-02-05 05:35:00,34.2,26.4,29.85,SW,218,0.0,14.0,73,0.00,,,0.00,Wunderground v.1.15,2013-02-05 10:35:00,
2013-02-05 05:40:00,34.2,26.8,29.85,SW,218,0.0,14.0,74,0.00,,,0.00,Wunderground v.1.15,2013-02-05 10:40:00,
2013-02-05 05:45:00,34.2,26.8,29.85,SW,218,0.0,14.0,74,0.00,,,0.00,Wunderground v.1.15,2013-02-05 10:45:00,
2013-02-05 05:55:00,34.3,27.2,29.85,SW,218,0.0,14.0,75,0.00,,,0.00,Wunderground v.1.15,2013-02-05 10:55:00,
2013-02-05 06:00:00,34.3,27.2,29.86,SW,218,0.0,14.0,75,0.00,,,0.00,Wunderground v.1.15,2013-02-05 11:00:00,
2013-02-05 06:05:00,34.4,27.9,29.86,SW,218,0.0,14.0,77,0.00,,,0.00,Wunderground v.1.15,2013-02-05 11:05:00,
2013-02-05 06:10:00,34.4,27.0,29.86,SW,218,0.0,14.0,74,0.00,,,0.00,Wunderground v.1.15,2013-02-05 11:10:00,
2013-02-05 06:15:00,34.4,27.0,29.86,SW,218,0.0,14.0,74,0.00,,,0.00,Wunderground v.1.15,2013-02-05 11:15:00,
2013-02-05 06:25:00,34.4,27.0,29.86,SW,218,0.0,14.0,74,0.00,,,0.00,Wunderground v.1.15,2013-02-05 11:25:00,
2013-02-05 06:30:00,34.4,27.0,29.87,SW,218,0.0,14.0,74,0.00,,,0.00,Wunderground v.1.15,2013-02-05 11:30:00,
2013-02-05 06:35:00,34.4,27.3,29.87,SW,218,0.0,14.0,75,0.00,,,0.00,Wunderground v.1.15,2013-02-05 11:35:00,
2013-02-05 06:45:00,34.4,27.0,29.87,SW,218,0.0,14.0,74,0.00,,,0.00,Wunderground v.1.15,2013-02-05 11:45:00,
2013-02-05 06:50:00,34.4,27.0,29.88,SW,218,0.0,14.0,74,0.00,,,0.00,Wunderground v.1.15,2013-02-05 11:50:00,
2013-02-05 06:55:00,34.4,27.0,29.88,SW,218,0.0,14.0,74,0.00,,,0.00,Wunderground v.1.15,2013-02-05 11:55:00,
2013-02-05 07:00:00,34.4,27.3,29.88,SW,218,0.0,14.0,75,0.00,,,0.00,Wunderground v.1.15,2013-02-05 12:00:00,
2013-02-05 07:05:00,34.5,27.4,29.88,SW,218,0.0,14.0,75,0.00,,,0.00,Wunderground v.1.15,2013-02-05 12:05:00,
2013-02-05 07:15:00,34.7,27.3,29.88,SW,218,0.0,14.0,74,0.00,,,0.00,Wunderground v.1.15,2013-02-05 12:15:00,
2013-02-05 07:20:00,34.6,27.2,29.88,SW,218,0.0,14.0,74,0.00,,,0.00,Wunderground v.1.15,2013-02-05 12:20:00,
2013-02-05 07:25:00,34.6,27.5,29.89,SW,218,0.0,14.0,75,0.00,,,0.00,Wunderground v.1.15,2013-02-05 12:25:00,
2013-02-05 07:30:00,34.6,27.5,29.89,SW,218,0.0,14.0,75,0.00,,,0.00,Wunderground v.1.15,2013-02-05 12:30:00,
2013-02-05 07:35:00,34.4,27.3,29.89,SW,218,0.0,14.0,75,0.00,,,0.00,Wunderground v.1.15,2013-02-05 12:35:00,
2013-02-05 07:45:00,34.3,28.2,29.90,SW,218,0.0,14.0,78,0.00,,,0.00,Wunderground v.1.15,2013-02-05 12:45:00,
2013-02-05 07:50:00,34.4,28.6,29.90,SW,218,0.0,14.0,79,0.00,,,0.00,Wunderground v.1.15,2013-02-05 12:50:00,
2013-02-05 07:55:00,34.4,27.9,29.90,SW,218,0.0,14.0,77,0.00,,,0.00,Wunderground v.1.15,2013-02-05 12:55:00,
2013-02-05 08:00:00,34.5,27.7,29.89,SW,218,0.0,14.0,76,0.00,,,0.00,Wunderground v.1.15,2013-02-05 13:00:00,
2013-02-05 08:05:00,34.4,27.3,29.89,SW,218,0.0,14.0,75,0.00,,,0.00,Wunderground v.1.15,2013-02-05 13:05:00,
2013-02-05 08:15:00,34.4,27.6,29.89,SW,218,0.0,14.0,76,0.00,,,0.00,Wunderground v.1.15,2013-02-05 13:15:00,
2013-02-05 08:20:00,34.4,27.6,29.90,SW,218,0.0,14.0,76,0.00,,,0.00,Wunderground v.1.15,2013-02-05 13:20:00,
2013-02-05 08:25:00,34.5,27.4,29.90,SW,218,0.0,14.0,75,0.00,,,0.00,Wunderground v.1.15,2013-02-05 13:25:00,
2013-02-05 08:30:00,34.8,28.0,29.90,SW,218,0.0,14.0,76,0.00,,,0.00,Wunderground v.1.15,2013-02-05 13:30:00,
2013-02-05 08:35:00,35.0,27.5,29.89,SW,218,0.0,14.0,74,0.00,,,0.00,Wunderground v.1.15,2013-02-05 13:35:00,
2013-02-05 08:45:00,35.2,27.7,29.90,SW,218,0.0,14.0,74,0.00,,,0.00,Wunderground v.1.15,2013-02-05 13:45:00,
2013-02-05 08:50:00,35.3,27.8,29.91,SW,218,0.0,14.0,74,0.00,,,0.00,Wunderground v.1.15,2013-02-05 13:50:00,
2013-02-05 08:55:00,35.4,27.3,29.91,SW,218,0.0,14.0,72,0.00,,,0.00,Wunderground v.1.15,2013-02-05 13:55:00,
2013-02-05 09:05:00,35.5,27.7,29.92,SW,218,0.0,14.0,73,0.00,,,0.00,Wunderground v.1.15,2013-02-05 14:05:00,
2013-02-05 09:10:00,35.3,27.2,29.93,SW,236,1.0,1.0,72,0.00,,,0.00,Wunderground v.1.15,2013-02-05 14:10:00,
2013-02-05 09:15:00,35.3,27.5,29.92,SW,236,1.0,14.0,73,0.00,,,0.00,Wunderground v.1.15,2013-02-05 14:15:00,
2013-02-05 09:20:00,35.6,27.5,29.91,SW,236,0.0,14.0,72,0.00,,,0.00,Wunderground v.1.15,2013-02-05 14:20:00,
2013-02-05 09:25:00,35.9,27.4,29.91,SW,236,0.0,14.0,71,0.00,,,0.00,Wunderground v.1.15,2013-02-05 14:25:00,
2013-02-05 09:35:00,36.3,28.1,29.91,SW,236,0.0,14.0,72,0.00,,,0.00,Wunderground v.1.15,2013-02-05 14:35:00,
2013-02-05 09:40:00,36.7,28.5,29.91,SW,236,0.0,14.0,72,0.00,,,0.00,Wunderground v.1.15,2013-02-05 14:40:00,
2013-02-05 09:45:00,37.1,28.6,29.92,SW,236,0.0,14.0,71,0.00,,,0.00,Wunderground v.1.15,2013-02-05 14:45:00,
2013-02-05 09:50:00,37.5,28.6,29.91,SW,236,0.0,14.0,70,0.00,,,0.00,Wunderground v.1.15,2013-02-05 14:50:00,
2013-02-05 09:55:00,37.8,28.5,29.92,SW,236,0.0,14.0,69,0.00,,,0.00,Wunderground v.1.15,2013-02-05 14:55:00,
2013-02-05 10:05:00,37.7,27.7,29.92,SW,236,0.0,14.0,67,0.00,,,0.00,Wunderground v.1.15,2013-02-05 15:05:00,
2013-02-05 10:10:00,37.8,28.2,29.91,SW,236,0.0,14.0,68,0.00,,,0.00,Wunderground v.1.15,2013-02-05 15:10:00,
2013-02-05 10:15:00,37.8,27.8,29.91,SW,236,0.0,14.0,67,0.00,,,0.00,Wunderground v.1.15,2013-02-05 15:15:00,
2013-02-05 10:25:00,37.9,28.3,29.92,SW,236,0.0,14.0,68,0.00,,,0.00,Wunderground v.1.15,2013-02-05 15:25:00,
2013-02-05 10:30:00,37.9,27.9,29.91,SW,236,0.0,14.0,67,0.00,,,0.00,Wunderground v.1.15,2013-02-05 15:30:00,
2013-02-05 10:35:00,37.9,28.3,29.91,SW,236,0.0,14.0,68,0.00,,,0.00,Wunderground v.1.15,2013-02-05 15:35:00,
2013-02-05 10:40:00,37.9,27.9,29.92,SW,236,1.0,1.0,67,0.00,,,0.00,Wunderground v.1.15,2013-02-05 15:40:00,
2013-02-05 10:45:00,38.1,28.1,29.91,SW,236,0.0,14.0,67,0.00,,,0.00,Wunderground v.1.15,2013-02-05 15:45:00,
2013-02-05 10:55:00,38.2,28.6,29.91,SW,234,0.0,14.0,68,0.00,,,0.00,Wunderground v.1.15,2013-02-05 15:55:00,
2013-02-05 11:00:00,38.3,29.4,29.91,NE,48,0.0,14.0,70,0.00,,,0.00,Wunderground v.1.15,2013-02-05 16:00:00,
2013-02-05 11:05:00,38.3,29.7,29.91,NE,49,1.0,14.0,71,0.00,,,0.00,Wunderground v.1.15,2013-02-05 16:05:00,
2013-02-05 11:10:00,38.4,29.8,29.92,NE,49,1.0,14.0,71,0.00,,,0.00,Wunderground v.1.15,2013-02-05 16:10:00,
2013-02-05 11:15:00,38.6,29.7,29.92,NE,48,0.0,14.0,70,0.00,,,0.00,Wunderground v.1.15,2013-02-05 16:15:00,
2013-02-05 11:25:00,38.3,29.0,29.92,NE,38,1.0,14.0,69,0.00,,,0.00,Wunderground v.1.15,2013-02-05 16:25:00,
2013-02-05 11:30:00,38.2,28.9,29.91,NE,38,1.0,14.0,69,0.00,,,0.00,Wunderground v.1.15,2013-02-05 16:30:00,
2013-02-05 11:35:00,38.3,28.7,29.91,NE,43,1.0,14.0,68,0.00,,,0.00,Wunderground v.1.15,2013-02-05 16:35:00,
2013-02-05 11:40:00,38.3,28.3,29.90,NE,43,1.0,14.0,67,0.00,,,0.00,Wunderground v.1.15,2013-02-05 16:40:00,
2013-02-05 11:50:00,38.5,29.2,29.90,NE,43,1.0,1.0,69,0.00,,,0.00,Wunderground v.1.15,2013-02-05 16:50:00,
2013-02-05 11:55:00,38.8,28.8,29.91,North,350,1.0,2.0,67,0.00,,,0.00,Wunderground v.1.15,2013-02-05 16:55:00,
2013-02-05 12:00:00,38.6,28.6,29.90,North,350,0.0,14.0,67,0.00,,,0.00,Wunderground v.1.15,2013-02-05 17:00:00,
2013-02-05 12:05:00,38.6,28.2,29.90,North,355,1.0,14.0,66,0.00,,,0.00,Wunderground v.1.15,2013-02-05 17:05:00,
2013-02-05 12:10:00,38.6,27.8,29.90,NE,48,1.0,1.0,65,0.00,,,0.00,Wunderground v.1.15,2013-02-05 17:10:00,
2013-02-05 12:20:00,38.9,28.1,29.89,NE,49,0.0,14.0,65,0.00,,,0.00,Wunderground v.1.15,2013-02-05 17:20:00,
2013-02-05 12:25:00,39.0,28.6,29.89,NE,49,0.0,14.0,66,0.00,,,0.00,Wunderground v.1.15,2013-02-05 17:25:00,
2013-02-05 12:30:00,39.0,28.6,29.88,NE,48,0.0,14.0,66,0.00,,,0.00,Wunderground v.1.15,2013-02-05 17:30:00,
2013-02-05 12:40:00,39.2,28.8,29.88,NE,56,0.0,14.0,66,0.00,,,0.00,Wunderground v.1.15,2013-02-05 17:40:00,
2013-02-05 12:45:00,39.5,29.4,29.88,NE,56,0.0,14.0,67,0.00,,,0.00,Wunderground v.1.15,2013-02-05 17:45:00,
2013-02-05 12:50:00,39.8,29.7,29.88,NE,55,1.0,1.0,67,0.00,,,0.00,Wunderground v.1.15,2013-02-05 17:50:00,
2013-02-05 12:55:00,40.0,29.6,29.88,NE,55,1.0,14.0,66,0.00,,,0.00,Wunderground v.1.15,2013-02-05 17:55:00,
2013-02-05 13:05:00,40.1,29.6,29.87,NE,55,0.0,14.0,66,0.00,,,0.00,Wunderground v.1.15,2013-02-05 18:05:00,
2013-02-05 13:10:00,40.2,29.7,29.87,NE,55,1.0,1.0,66,0.00,,,0.00,Wunderground v.1.15,2013-02-05 18:10:00,
2013-02-05 13:15:00,40.2,30.1,29.86,ENE,62,1.0,2.0,67,0.00,,,0.00,Wunderground v.1.15,2013-02-05 18:15:00,
2013-02-05 13:20:00,40.4,30.3,29.86,ENE,61,1.0,1.0,67,0.00,,,0.00,Wunderground v.1.15,2013-02-05 18:20:00,
2013-02-05 13:25:00,40.3,30.2,29.85,East,84,1.0,14.0,67,0.00,,,0.00,Wunderground v.1.15,2013-02-05 18:25:00,
2013-02-05 13:35:00,40.5,30.8,29.86,ENE,63,1.0,14.0,68,0.00,,,0.00,Wunderground v.1.15,2013-02-05 18:35:00,
2013-02-05 13:40:00,40.5,30.0,29.85,NE,53,1.0,1.0,66,0.00,,,0.00,Wunderground v.1.15,2013-02-05 18:40:00,
2013-02-05 13:45:00,40.6,30.1,29.85,NE,55,1.0,14.0,66,0.00,,,0.00,Wunderground v.1.15,2013-02-05 18:45:00,
2013-02-05 13:50:00,40.9,30.0,29.85,NE,55,1.0,14.0,65,0.00,,,0.00,Wunderground v.1.15,2013-02-05 18:50:00,
2013-02-05 14:00:00,41.1,30.2,29.84,ENE,59,1.0,1.0,65,0.00,,,0.00,Wunderground v.1.15,2013-02-05 19:00:00,
2013-02-05 14:05:00,41.2,30.3,29.84,ENE,60,1.0,14.0,65,0.00,,,0.00,Wunderground v.1.15,2013-02-05 19:05:00,
2013-02-05 14:10:00,41.2,30.3,29.84,ENE,60,0.0,14.0,65,0.00,,,0.00,Wunderground v.1.15,2013-02-05 19:10:00,
2013-02-05 14:15:00,41.1,30.6,29.84,ENE,60,0.0,14.0,66,0.00,,,0.00,Wunderground v.1.15,2013-02-05 19:15:00,
2013-02-05 14:20:00,41.2,30.7,29.84,ENE,60,1.0,1.0,66,0.00,,,0.00,Wunderground v.1.15,2013-02-05 19:20:00,
2013-02-05 14:30:00,41.3,31.2,29.84,ENE,60,1.0,1.0,67,0.00,,,0.00,Wunderground v.1.15,2013-02-05 19:30:00,
2013-02-05 14:35:00,41.4,30.9,29.83,ENE,60,1.0,14.0,66,0.00,,,0.00,Wunderground v.1.15,2013-02-05 19:35:00,
2013-02-05 14:40:00,41.4,30.9,29.83,ENE,60,0.0,14.0,66,0.00,,,0.00,Wunderground v.1.15,2013-02-05 19:40:00,
2013-02-05 14:45:00,41.5,30.6,29.84,ENE,60,0.0,14.0,65,0.00,,,0.00,Wunderground v.1.15,2013-02-05 19:45:00,
2013-02-05 14:50:00,41.5,31.4,29.84,ENE,60,0.0,14.0,67,0.00,,,0.00,Wunderground v.1.15,2013-02-05 19:50:00,
2013-02-05 15:00:00,41.6,30.7,29.84,ENE,60,0.0,14.0,65,0.00,,,0.00,Wunderground v.1.15,2013-02-05 20:00:00,
2013-02-05 15:05:00,41.7,31.5,29.84,ENE,60,0.0,14.0,67,0.00,,,0.00,Wunderground v.1.15,2013-02-05 20:05:00,
2013-02-05 15:10:00,41.8,31.3,29.85,ENE,60,0.0,14.0,66,0.00,,,0.00,Wunderground v.1.15,2013-02-05 20:10:00,
2013-02-05 15:15:00,41.8,31.6,29.85,ENE,60,0.0,14.0,67,0.00,,,0.00,Wunderground v.1.15,2013-02-05 20:15:00,
2013-02-05 15:25:00,41.8,31.3,29.84,ENE,60,1.0,14.0,66,0.00,,,0.00,Wunderground v.1.15,2013-02-05 20:25:00,
2013-02-05 15:30:00,41.8,31.6,29.85,ENE,60,1.0,14.0,67,0.00,,,0.00,Wunderground v.1.15,2013-02-05 20:30:00,
2013-02-05 15:35:00,41.9,31.7,29.84,ENE,60,0.0,14.0,67,0.00,,,0.00,Wunderground v.1.15,2013-02-05 20:35:00,
2013-02-05 15:40:00,41.9,31.7,29.85,ENE,60,0.0,14.0,67,0.00,,,0.00,Wunderground v.1.15,2013-02-05 20:40:00,
2013-02-05 15:45:00,41.9,31.4,29.85,ENE,60,1.0,14.0,66,0.00,,,0.00,Wunderground v.1.15,2013-02-05 20:45:00,
2013-02-05 15:55:00,41.6,31.1,29.85,NE,46,1.0,14.0,66,0.00,,,0.00,Wunderground v.1.15,2013-02-05 20:55:00,
2013-02-05 16:00:00,41.3,31.2,29.85,NE,46,1.0,1.0,67,0.00,,,0.00,Wunderground v.1.15,2013-02-05 21:00:00,
2013-02-05 16:05:00,41.3,31.5,29.85,NE,46,0.0,14.0,68,0.00,,,0.00,Wunderground v.1.15,2013-02-05 21:05:00,
2013-02-05 16:15:00,41.4,32.3,29.84,NE,46,0.0,14.0,70,0.00,,,0.00,Wunderground v.1.15,2013-02-05 21:15:00,
2013-02-05 16:20:00,41.5,31.4,29.85,NE,46,0.0,14.0,67,0.00,,,0.00,Wunderground v.1.15,2013-02-05 21:20:00,
2013-02-05 16:25:00,41.4,31.3,29.84,NE,46,1.0,14.0,67,0.00,,,0.00,Wunderground v.1.15,2013-02-05 21:25:00,
2013-02-05 16:30:00,41.2,31.8,29.84,NE,46,0.0,14.0,69,0.00,,,0.00,Wunderground v.1.15,2013-02-05 21:30:00,
2013-02-05 16:35:00,41.3,31.5,29.84,NE,46,0.0,14.0,68,0.00,,,0.00,Wunderground v.1.15,2013-02-05 21:35:00,
2013-02-05 16:45:00,41.0,31.2,29.85,NE,46,1.0,14.0,68,0.00,,,0.00,Wunderground v.1.15,2013-02-05 21:45:00,
2013-02-05 16:50:00,40.9,31.1,29.85,NE,46,1.0,1.0,68,0.00,,,0.00,Wunderground v.1.15,2013-02-05 21:50:00,
2013-02-05 16:55:00,40.7,31.0,29.85,NE,46,0.0,3.0,68,0.00,,,0.00,Wunderground v.1.15,2013-02-05 21:55:00,
2013-02-05 17:00:00,40.6,31.2,29.85,NE,46,0.0,14.0,69,0.00,,,0.00,Wunderground v.1.15,2013-02-05 22:00:00,
2013-02-05 17:05:00,40.5,31.5,29.85,NE,46,0.0,14.0,70,0.00,,,0.00,Wunderground v.1.15,2013-02-05 22:05:00,
2013-02-05 17:15:00,40.4,31.4,29.86,NE,46,0.0,14.0,70,0.00,,,0.00,Wunderground v.1.15,2013-02-05 22:15:00,
2013-02-05 17:20:00,40.2,30.8,29.86,NE,46,1.0,1.0,69,0.00,,,0.00,Wunderground v.1.15,2013-02-05 22:20:00,
2013-02-05 17:25:00,40.2,30.8,29.86,NE,46,0.0,14.0,69,0.00,,,0.00,Wunderground v.1.15,2013-02-05 22:25:00,
2013-02-05 17:35:00,40.0,30.6,29.86,NE,46,0.0,14.0,69,0.00,,,0.00,Wunderground v.1.15,2013-02-05 22:35:00,
2013-02-05 17:40:00,39.6,30.6,29.86,NE,46,0.0,14.0,70,0.00,,,0.00,Wunderground v.1.15,2013-02-05 22:40:00,
2013-02-05 17:45:00,39.5,30.5,29.86,NE,46,0.0,14.0,70,0.00,,,0.00,Wunderground v.1.15,2013-02-05 22:45:00,
2013-02-05 17:50:00,39.4,31.1,29.87,NE,46,0.0,14.0,72,0.00,,,0.00,Wunderground v.1.15,2013-02-05 22:50:00,
2013-02-05 17:55:00,39.5,31.2,29.87,NE,46,0.0,14.0,72,0.00,,,0.00,Wunderground v.1.15,2013-02-05 22:55:00,
2013-02-05 18:05:00,39.2,30.9,29.87,NE,46,0.0,14.0,72,0.00,,,0.00,Wunderground v.1.15,2013-02-05 23:05:00,
2013-02-05 18:10:00,39.1,31.2,29.87,NE,46,0.0,14.0,73,0.00,,,0.00,Wunderground v.1.15,2013-02-05 23:10:00,
2013-02-05 18:15:00,39.1,30.5,29.87,NE,46,0.0,14.0,71,0.00,,,0.00,Wunderground v.1.15,2013-02-05 23:15:00,
2013-02-05 18:20:00,39.0,30.4,29.87,NE,46,0.0,14.0,71,0.00,,,0.00,Wunderground v.1.15,2013-02-05 23:20:00,
2013-02-05 18:25:00,38.9,30.3,29.87,NE,46,0.0,14.0,71,0.00,,,0.00,Wunderground v.1.15,2013-02-05 23:25:00,
2013-02-05 18:35:00,38.5,29.9,29.87,NE,46,0.0,14.0,71,0.00,,,0.00,Wunderground v.1.15,2013-02-05 23:35:00,
2013-02-05 18:40:00,38.4,29.8,29.88,NE,46,0.0,14.0,71,0.00,,,0.00,Wunderground v.1.15,2013-02-05 23:40:00,
2013-02-05 18:45:00,38.4,30.5,29.88,NE,46,0.0,14.0,73,0.00,,,0.00,Wunderground v.1.15,2013-02-05 23:45:00,
2013-02-05 18:50:00,38.4,30.2,29.88,NE,46,0.0,14.0,72,0.00,,,0.00,Wunderground v.1.15,2013-02-05 23:50:00,
2013-02-05 19:00:00,38.3,29.7,29.88,NE,46,0.0,14.0,71,0.00,,,0.00,Wunderground v.1.15,2013-02-06 00:00:00,
2013-02-05 19:05:00,38.1,29.5,29.88,NE,46,0.0,14.0,71,0.00,,,0.00,Wunderground v.1.15,2013-02-06 00:05:00,
2013-02-05 19:10:00,38.0,29.8,29.88,NE,46,0.0,14.0,72,0.00,,,0.00,Wunderground v.1.15,2013-02-06 00:10:00,
2013-02-05 19:15:00,37.9,29.7,29.88,NE,46,0.0,14.0,72,0.00,,,0.00,Wunderground v.1.15,2013-02-06 00:15:00,
2013-02-05 19:20:00,37.8,29.6,29.88,NE,46,0.0,14.0,72,0.00,,,0.00,Wunderground v.1.15,2013-02-06 00:20:00,
2013-02-05 19:30:00,37.7,29.8,29.88,NE,46,0.0,14.0,73,0.00,,,0.00,Wunderground v.1.15,2013-02-06 00:30:00,
2013-02-05 19:35:00,37.7,29.8,29.88,NE,46,0.0,14.0,73,0.00,,,0.00,Wunderground v.1.15,2013-02-06 00:35:00,
2013-02-05 19:40:00,37.6,29.4,29.88,NE,46,0.0,14.0,72,0.00,,,0.00,Wunderground v.1.15,2013-02-06 00:40:00,
2013-02-05 19:50:00,37.6,30.1,29.88,NE,46,0.0,14.0,74,0.00,,,0.00,Wunderground v.1.15,2013-02-06 00:50:00,
2013-02-05 19:55:00,37.7,29.8,29.88,NE,46,0.0,14.0,73,0.00,,,0.00,Wunderground v.1.15,2013-02-06 00:55:00,
2013-02-05 20:00:00,37.7,29.8,29.88,NE,46,0.0,14.0,73,0.00,,,0.00,Wunderground v.1.15,2013-02-06 01:00:00,
2013-02-05 20:05:00,37.7,29.5,29.88,NE,46,0.0,14.0,72,0.00,,,0.00,Wunderground v.1.15,2013-02-06 01:05:00,
2013-02-05 20:15:00,37.4,29.5,29.88,NE,46,0.0,14.0,73,0.00,,,0.00,Wunderground v.1.15,2013-02-06 01:15:00,
2013-02-05 20:20:00,37.3,29.1,29.88,NE,46,0.0,14.0,72,0.00,,,0.00,Wunderground v.1.15,2013-02-06 01:20:00,
2013-02-05 20:25:00,37.2,29.0,29.88,NE,46,0.0,14.0,72,0.00,,,0.00,Wunderground v.1.15,2013-02-06 01:25:00,
2013-02-05 20:35:00,37.0,28.8,29.88,NE,46,0.0,14.0,72,0.00,,,0.00,Wunderground v.1.15,2013-02-06 01:35:00,
2013-02-05 20:40:00,36.9,28.7,29.89,NE,46,0.0,14.0,72,0.00,,,0.00,Wunderground v.1.15,2013-02-06 01:40:00,
2013-02-05 20:45:00,36.8,28.6,29.89,NE,46,0.0,14.0,72,0.00,,,0.00,Wunderground v.1.15,2013-02-06 01:45:00,
2013-02-05 20:50:00,36.8,28.6,29.89,NE,46,0.0,14.0,72,0.00,,,0.00,Wunderground v.1.15,2013-02-06 01:50:00,
2013-02-05 20:55:00,36.6,28.4,29.89,NE,46,0.0,14.0,72,0.00,,,0.00,Wunderground v.1.15,2013-02-06 01:55:00,
2013-02-05 21:05:00,36.4,28.6,29.89,NE,46,0.0,14.0,73,0.00,,,0.00,Wunderground v.1.15,2013-02-06 02:05:00,
2013-02-05 21:10:00,36.3,28.5,29.89,NE,46,0.0,14.0,73,0.00,,,0.00,Wunderground v.1.15,2013-02-06 02:10:00,
2013-02-05 21:15:00,36.0,28.2,29.89,NE,46,0.0,14.0,73,0.00,,,0.00,Wunderground v.1.15,2013-02-06 02:15:00,
2013-02-05 21:20:00,35.9,28.7,29.89,NE,46,0.0,14.0,75,0.00,,,0.00,Wunderground v.1.15,2013-02-06 02:20:00,
2013-02-05 21:30:00,36.1,29.3,29.90,NE,46,0.0,14.0,76,0.00,,,0.00,Wunderground v.1.15,2013-02-06 02:30:00,
2013-02-05 21:35:00,36.5,29.7,29.90,NE,46,0.0,14.0,76,0.00,,,0.00,Wunderground v.1.15,2013-02-06 02:35:00,
2013-02-05 21:40:00,36.5,29.0,29.91,NE,46,0.0,14.0,74,0.00,,,0.00,Wunderground v.1.15,2013-02-06 02:40:00,
2013-02-05 21:45:00,36.8,30.6,29.91,NE,46,0.0,14.0,78,0.00,,,0.00,Wunderground v.1.15,2013-02-06 02:45:00,
2013-02-05 21:55:00,36.1,28.6,29.91,NE,46,0.0,14.0,74,0.00,,,0.00,Wunderground v.1.15,2013-02-06 02:55:00,
2013-02-05 22:00:00,35.9,28.7,29.91,NE,46,0.0,14.0,75,0.00,,,0.00,Wunderground v.1.15,2013-02-06 03:00:00,
2013-02-05 22:10:00,35.5,28.7,29.91,NE,46,0.0,14.0,76,0.00,,,0.00,Wunderground v.1.15,2013-02-06 03:10:00,
2013-02-05 22:15:00,35.5,28.4,29.91,NE,46,0.0,14.0,75,0.00,,,0.00,Wunderground v.1.15,2013-02-06 03:15:00,
2013-02-05 22:20:00,35.5,28.0,29.91,NE,46,0.0,14.0,74,0.00,,,0.00,Wunderground v.1.15,2013-02-06 03:20:00,
2013-02-05 22:25:00,35.5,28.7,29.92,NE,46,0.0,14.0,76,0.00,,,0.00,Wunderground v.1.15,2013-02-06 03:25:00,
2013-02-05 22:35:00,35.6,28.1,29.92,NE,46,0.0,14.0,74,0.00,,,0.00,Wunderground v.1.15,2013-02-06 03:35:00,
2013-02-05 22:40:00,35.7,28.2,29.92,NE,46,0.0,14.0,74,0.00,,,0.00,Wunderground v.1.15,2013-02-06 03:40:00,
2013-02-05 22:45:00,35.6,28.1,29.92,NE,46,0.0,14.0,74,0.00,,,0.00,Wunderground v.1.15,2013-02-06 03:45:00,
2013-02-05 22:55:00,35.6,28.1,29.92,NE,46,0.0,14.0,74,0.00,,,0.00,Wunderground v.1.15,2013-02-06 03:55:00,
2013-02-05 23:00:00,35.5,28.0,29.92,NE,46,0.0,14.0,74,0.00,,,0.00,Wunderground v.1.15,2013-02-06 04:00:00,
2013-02-05 23:05:00,35.5,28.0,29.92,NE,46,0.0,14.0,74,0.00,,,0.00,Wunderground v.1.15,2013-02-06 04:05:00,
2013-02-05 23:10:00,35.5,28.0,29.93,NE,46,0.0,14.0,74,0.00,,,0.00,Wunderground v.1.15,2013-02-06 04:10:00,
2013-02-05 23:20:00,35.5,28.4,29.92,NNW,331,1.0,14.0,75,0.00,,,0.00,Wunderground v.1.15,2013-02-06 04:20:00,
2013-02-05 23:25:00,35.5,28.4,29.92,NNW,331,0.0,14.0,75,0.00,,,0.00,Wunderground v.1.15,2013-02-06 04:25:00,
2013-02-05 23:30:00,35.5,28.0,29.92,NNW,334,0.0,14.0,74,0.00,,,0.00,Wunderground v.1.15,2013-02-06 04:30:00,
2013-02-05 23:35:00,35.5,28.4,29.92,NNW,334,0.0,14.0,75,0.00,,,0.00,Wunderground v.1.15,2013-02-06 04:35:00,
2013-02-05 23:45:00,35.5,28.7,29.93,NNW,334,0.0,14.0,76,0.00,,,0.00,Wunderground v.1.15,2013-02-06 04:45:00,
2013-02-05 23:50:00,35.6,28.5,29.93,NNW,334,0.0,14.0,75,0.00,,,0.00,Wunderground v.1.15,2013-02-06 04:50:00,
2013-02-05 23:55:00,35.7,28.9,29.93,NNW,334,0.0,14.0,76,0.00,,,0.00,Wunderground v.1.15,2013-02-06 04:55:00,